[source: ADDS]
METAR
EDVE 011150Z VRB08KT CAVOK 08/M06 Q1020

TAF EDVE 011100Z 0112/0121 27009KT 9999 SCT035 BECMG 0117/0119 26004KT EDDV 011150Z 26011KT 230V300 9999 BKN035 08/00 Q1020 NOSIG

TAF EDDV 011100Z 0112/0212 27010KT 9999 SCT035 BECMG 0117/0119 26005KT BECMG 0206/0208 26010KT ETHS 011120Z 28011KT 9999 BKN025 06/M01 Q1020 BLU BLU

TAF ETHS 011021Z 0111/0120 27010KT 9999 NSW SCT025 BKN040 PROB30 0114/0120 28012KT 7000 -RA BKN020 ETHC 011120Z 26009KT 9999 BKN034 08/M02 Q1020 BLU BLU+ TEMPO BLU

TAF ETHC 011008Z 0111/0120 26010KT 9999 NSW FEW030 SCT050 EDVK 011150Z VRB03KT CAVOK 06/M07 Q1020

TAF EDVK 011100Z 0112/0121 30005KT CAVOK BECMG 0118/0120 VRB03KT
TAF
TAF EDVE 011100Z 0112/0121 27009KT 9999 SCT035 BECMG 0117/0119 26004KT

TAF EDDV 011100Z 0112/0212 27010KT 9999 SCT035 BECMG 0117/0119 26005KT BECMG 0206/0208 26010KT

TAF ETHS 011021Z 0111/0120 27010KT 9999 NSW SCT025 BKN040 PROB30 0114/0120 28012KT 7000 -RA BKN020

TAF ETHC 011008Z 0111/0120 26010KT 9999 NSW FEW030 SCT050

TAF EDVK 011100Z 0112/0121 30005KT CAVOK BECMG 0118/0120 VRB03KT

SR / SS: 04:50 / 17:52 UTC (EDVE 2020-04-01)
Bei der FFG ist der Betrieb zunächst bis zum 18.04.2020 (einschließlich) eingestellt. +++ Gero steht ebenfalls als Fluglehrer zur Verfügung! Vielen Dank an Gero und viel Erfolg beim Ausbilden. +++ Ilya hat die Theorieprüfung bestanden! Herzlichen Glückwunsch und weiterhin viel Erfolg für die restliche Ausbildung! +++ Hallo Felix, herzlich Willkommen bei der FFG und viel Erfolg für deine Pilotenausbildung! +++ Jens verstärkt als neuer Fluglehrer ab sofort unser FFG-Fluglehrer-Team. Glückwunsch und viel Erfolg beim Ausbilden! +++ Wir beglückwünschen Sebastian zur bestandenen PPL-Theorie-Prüfung! Weiterhin viel Erfolg bei der Ausbildung! +++ Stefan hat die praktische Prüfung bestanden! Herzlichen Glückwunsch und Always Happy Landings! +++ Ein weiteres Mitglied hat die Prüfung zum Fluglehrer gemeistert. Glückwunsch Nico und viel Erfolg beim Ausbilden! +++ Florian Hansmann ist ab sofort als Fluglehrer für die FFG tätig! Danke für das Engagement und viel Spaß mit deinen zukünftigen Schülern! +++ Willkommen im Verein Michael und viel Erfolg für deine Ausbildung! +++ Herzlich Willkommen bei der FFG Jens!

Neues Bild in 60 Sekunden

          aerodata150     Radio38